sensor_id;sensor_type;location;lat;lon;timestamp;temperature;humidity
48551;DHT22;34397;51.176;6.738;2022-12-18T00:02:03;-3.10;61.60
48551;DHT22;34397;51.176;6.738;2022-12-18T00:04:37;-3.10;61.50
48551;DHT22;34397;51.176;6.738;2022-12-18T00:07:09;-3.10;61.20
48551;DHT22;34397;51.176;6.738;2022-12-18T00:09:40;-3.10;61.70
48551;DHT22;34397;51.176;6.738;2022-12-18T00:12:12;-3.10;61.80
48551;DHT22;34397;51.176;6.738;2022-12-18T00:14:44;-3.10;61.70
48551;DHT22;34397;51.176;6.738;2022-12-18T00:17:16;-3.10;61.40
48551;DHT22;34397;51.176;6.738;2022-12-18T00:19:49;-3.20;61.60
48551;DHT22;34397;51.176;6.738;2022-12-18T00:22:21;-3.20;61.70
48551;DHT22;34397;51.176;6.738;2022-12-18T00:24:53;-3.20;61.50
48551;DHT22;34397;51.176;6.738;2022-12-18T00:27:24;-3.20;62.10
48551;DHT22;34397;51.176;6.738;2022-12-18T00:29:56;-3.20;61.80
48551;DHT22;34397;51.176;6.738;2022-12-18T00:32:28;-3.30;62.10
48551;DHT22;34397;51.176;6.738;2022-12-18T00:35:01;-3.30;62.20
48551;DHT22;34397;51.176;6.738;2022-12-18T00:37:33;-3.30;62.30
48551;DHT22;34397;51.176;6.738;2022-12-18T00:40:06;-3.30;62.60
48551;DHT22;34397;51.176;6.738;2022-12-18T00:42:39;-3.30;62.30
48551;DHT22;34397;51.176;6.738;2022-12-18T00:45:29;-3.40;62.60
48551;DHT22;34397;51.176;6.738;2022-12-18T00:48:02;-3.30;62.50
48551;DHT22;34397;51.176;6.738;2022-12-18T00:50:35;-3.30;62.50
48551;DHT22;34397;51.176;6.738;2022-12-18T00:53:07;-3.30;62.10
48551;DHT22;34397;51.176;6.738;2022-12-18T00:55:42;-3.40;62.00
48551;DHT22;34397;51.176;6.738;2022-12-18T00:58:16;-3.40;62.20
48551;DHT22;34397;51.176;6.738;2022-12-18T01:00:48;-3.40;61.80
48551;DHT22;34397;51.176;6.738;2022-12-18T01:03:20;-3.40;62.40
48551;DHT22;34397;51.176;6.738;2022-12-18T01:05:53;-3.40;62.00
48551;DHT22;34397;51.176;6.738;2022-12-18T01:08:25;-3.40;62.10
48551;DHT22;34397;51.176;6.738;2022-12-18T01:10:57;-3.40;62.30
48551;DHT22;34397;51.176;6.738;2022-12-18T01:13:28;-3.40;62.30
48551;DHT22;34397;51.176;6.738;2022-12-18T01:16:00;-3.40;62.20
48551;DHT22;34397;51.176;6.738;2022-12-18T01:18:32;-3.40;62.10
48551;DHT22;34397;51.176;6.738;2022-12-18T01:21:08;-3.50;62.10
48551;DHT22;34397;51.176;6.738;2022-12-18T01:23:41;-3.40;62.40
48551;DHT22;34397;51.176;6.738;2022-12-18T01:26:15;-3.40;62.20
48551;DHT22;34397;51.176;6.738;2022-12-18T01:28:47;-3.40;62.40
48551;DHT22;34397;51.176;6.738;2022-12-18T01:31:20;-3.40;62.00
48551;DHT22;34397;51.176;6.738;2022-12-18T01:33:54;-3.40;62.20
48551;DHT22;34397;51.176;6.738;2022-12-18T01:36:30;-3.40;62.20
48551;DHT22;34397;51.176;6.738;2022-12-18T01:39:05;-3.40;62.10
48551;DHT22;34397;51.176;6.738;2022-12-18T01:41:38;-3.40;62.10
48551;DHT22;34397;51.176;6.738;2022-12-18T01:44:53;-3.40;62.10
48551;DHT22;34397;51.176;6.738;2022-12-18T01:47:35;-3.40;61.90
48551;DHT22;34397;51.176;6.738;2022-12-18T01:50:11;-3.40;61.80
48551;DHT22;34397;51.176;6.738;2022-12-18T01:52:47;-3.40;61.60
48551;DHT22;34397;51.176;6.738;2022-12-18T01:55:23;-3.40;61.50
48551;DHT22;34397;51.176;6.738;2022-12-18T01:57:59;-3.40;61.40
48551;DHT22;34397;51.176;6.738;2022-12-18T02:00:31;-3.40;61.40
48551;DHT22;34397;51.176;6.738;2022-12-18T02:03:03;-3.40;61.50
48551;DHT22;34397;51.176;6.738;2022-12-18T02:05:41;-3.40;61.30
48551;DHT22;34397;51.176;6.738;2022-12-18T02:08:20;-3.40;61.50
48551;DHT22;34397;51.176;6.738;2022-12-18T02:10:57;-3.40;61.30
48551;DHT22;34397;51.176;6.738;2022-12-18T02:13:41;-3.40;61.60
48551;DHT22;34397;51.176;6.738;2022-12-18T02:16:21;-3.40;61.00
48551;DHT22;34397;51.176;6.738;2022-12-18T02:18:58;-3.40;61.50
48551;DHT22;34397;51.176;6.738;2022-12-18T02:21:40;-3.40;61.30
48551;DHT22;34397;51.176;6.738;2022-12-18T02:24:28;-3.50;60.90
48551;DHT22;34397;51.176;6.738;2022-12-18T02:27:05;-3.50;61.40
48551;DHT22;34397;51.176;6.738;2022-12-18T02:29:41;-3.50;61.50
48551;DHT22;34397;51.176;6.738;2022-12-18T02:32:19;-3.50;61.40
48551;DHT22;34397;51.176;6.738;2022-12-18T02:34:56;-3.50;61.60
48551;DHT22;34397;51.176;6.738;2022-12-18T02:37:29;-3.60;61.40
48551;DHT22;34397;51.176;6.738;2022-12-18T02:40:04;-3.60;61.90
48551;DHT22;34397;51.176;6.738;2022-12-18T02:42:38;-3.60;61.90
48551;DHT22;34397;51.176;6.738;2022-12-18T02:45:10;-3.60;62.00
48551;DHT22;34397;51.176;6.738;2022-12-18T02:47:43;-3.60;62.50
48551;DHT22;34397;51.176;6.738;2022-12-18T02:50:22;-3.60;62.10
48551;DHT22;34397;51.176;6.738;2022-12-18T02:53:06;-3.60;62.20
48551;DHT22;34397;51.176;6.738;2022-12-18T02:55:50;-3.60;62.00
48551;DHT22;34397;51.176;6.738;2022-12-18T02:58:32;-3.70;62.70
48551;DHT22;34397;51.176;6.738;2022-12-18T03:01:10;-3.60;62.20
48551;DHT22;34397;51.176;6.738;2022-12-18T03:03:49;-3.60;62.60
48551;DHT22;34397;51.176;6.738;2022-12-18T03:06:26;-3.60;62.40
48551;DHT22;34397;51.176;6.738;2022-12-18T03:09:03;-3.70;62.00
48551;DHT22;34397;51.176;6.738;2022-12-18T03:11:41;-3.70;62.10
48551;DHT22;34397;51.176;6.738;2022-12-18T03:14:36;-3.70;62.20
48551;DHT22;34397;51.176;6.738;2022-12-18T03:17:13;-3.70;62.30
48551;DHT22;34397;51.176;6.738;2022-12-18T03:19:49;-3.70;62.10
48551;DHT22;34397;51.176;6.738;2022-12-18T03:22:23;-3.70;62.20
48551;DHT22;34397;51.176;6.738;2022-12-18T03:24:56;-3.70;62.50
48551;DHT22;34397;51.176;6.738;2022-12-18T03:27:29;-3.60;62.40
48551;DHT22;34397;51.176;6.738;2022-12-18T03:30:05;-3.60;62.60
48551;DHT22;34397;51.176;6.738;2022-12-18T03:32:44;-3.60;62.50
48551;DHT22;34397;51.176;6.738;2022-12-18T03:35:20;-3.60;62.00
48551;DHT22;34397;51.176;6.738;2022-12-18T03:37:54;-3.60;62.50
48551;DHT22;34397;51.176;6.738;2022-12-18T03:40:29;-3.60;62.30
48551;DHT22;34397;51.176;6.738;2022-12-18T03:43:10;-3.60;62.40
48551;DHT22;34397;51.176;6.738;2022-12-18T03:45:52;-3.60;62.20
48551;DHT22;34397;51.176;6.738;2022-12-18T03:48:29;-3.50;62.20
48551;DHT22;34397;51.176;6.738;2022-12-18T03:51:07;-3.50;62.00
48551;DHT22;34397;51.176;6.738;2022-12-18T03:53:45;-3.50;61.90
48551;DHT22;34397;51.176;6.738;2022-12-18T03:56:19;-3.50;62.00
48551;DHT22;34397;51.176;6.738;2022-12-18T03:58:53;-3.50;61.60
48551;DHT22;34397;51.176;6.738;2022-12-18T04:01:31;-3.50;61.90
48551;DHT22;34397;51.176;6.738;2022-12-18T04:04:05;-3.50;61.70
48551;DHT22;34397;51.176;6.738;2022-12-18T04:06:39;-3.50;61.60
48551;DHT22;34397;51.176;6.738;2022-12-18T04:09:12;-3.50;61.20
48551;DHT22;34397;51.176;6.738;2022-12-18T04:11:45;-3.50;61.60
48551;DHT22;34397;51.176;6.738;2022-12-18T04:14:17;-3.50;61.70
48551;DHT22;34397;51.176;6.738;2022-12-18T04:16:50;-3.50;61.70
48551;DHT22;34397;51.176;6.738;2022-12-18T04:19:22;-3.50;61.60
48551;DHT22;34397;51.176;6.738;2022-12-18T04:21:54;-3.50;61.50
48551;DHT22;34397;51.176;6.738;2022-12-18T04:24:26;-3.50;61.60
48551;DHT22;34397;51.176;6.738;2022-12-18T04:26:58;-3.50;61.60
48551;DHT22;34397;51.176;6.738;2022-12-18T04:29:30;-3.50;61.50
48551;DHT22;34397;51.176;6.738;2022-12-18T04:32:03;-3.50;61.50
48551;DHT22;34397;51.176;6.738;2022-12-18T04:34:35;-3.40;61.30
48551;DHT22;34397;51.176;6.738;2022-12-18T04:37:07;-3.50;61.20
48551;DHT22;34397;51.176;6.738;2022-12-18T04:39:39;-3.50;61.60
48551;DHT22;34397;51.176;6.738;2022-12-18T04:42:11;-3.50;61.40
48551;DHT22;34397;51.176;6.738;2022-12-18T04:44:43;-3.50;61.50
48551;DHT22;34397;51.176;6.738;2022-12-18T04:47:16;-3.50;61.50
48551;DHT22;34397;51.176;6.738;2022-12-18T04:49:48;-3.40;61.50
48551;DHT22;34397;51.176;6.738;2022-12-18T04:52:19;-3.50;61.40
48551;DHT22;34397;51.176;6.738;2022-12-18T04:54:51;-3.40;61.20
48551;DHT22;34397;51.176;6.738;2022-12-18T04:57:23;-3.50;61.10
48551;DHT22;34397;51.176;6.738;2022-12-18T04:59:55;-3.50;61.30
48551;DHT22;34397;51.176;6.738;2022-12-18T05:02:28;-3.40;61.20
48551;DHT22;34397;51.176;6.738;2022-12-18T05:05:00;-3.50;61.30
48551;DHT22;34397;51.176;6.738;2022-12-18T05:07:32;-3.50;61.20
48551;DHT22;34397;51.176;6.738;2022-12-18T05:10:04;-3.50;61.30
48551;DHT22;34397;51.176;6.738;2022-12-18T05:12:37;-3.50;61.20
48551;DHT22;34397;51.176;6.738;2022-12-18T05:15:29;-3.50;61.30
48551;DHT22;34397;51.176;6.738;2022-12-18T05:18:04;-3.50;61.20
48551;DHT22;34397;51.176;6.738;2022-12-18T05:20:36;-3.50;61.30
48551;DHT22;34397;51.176;6.738;2022-12-18T05:23:07;-3.50;61.00
48551;DHT22;34397;51.176;6.738;2022-12-18T05:25:39;-3.50;61.10
48551;DHT22;34397;51.176;6.738;2022-12-18T05:28:11;-3.50;61.30
48551;DHT22;34397;51.176;6.738;2022-12-18T05:30:47;-3.50;61.30
48551;DHT22;34397;51.176;6.738;2022-12-18T05:33:22;-3.60;61.20
48551;DHT22;34397;51.176;6.738;2022-12-18T05:35:57;-3.60;61.20
48551;DHT22;34397;51.176;6.738;2022-12-18T05:38:31;-3.60;61.30
48551;DHT22;34397;51.176;6.738;2022-12-18T05:41:04;-3.60;61.40
48551;DHT22;34397;51.176;6.738;2022-12-18T05:43:38;-3.60;61.10
48551;DHT22;34397;51.176;6.738;2022-12-18T05:46:13;-3.60;61.40
48551;DHT22;34397;51.176;6.738;2022-12-18T05:48:47;-3.60;61.60
48551;DHT22;34397;51.176;6.738;2022-12-18T05:51:22;-3.60;61.60
48551;DHT22;34397;51.176;6.738;2022-12-18T05:53:54;-3.60;61.60
48551;DHT22;34397;51.176;6.738;2022-12-18T05:56:26;-3.60;61.60
48551;DHT22;34397;51.176;6.738;2022-12-18T05:58:58;-3.60;61.60
48551;DHT22;34397;51.176;6.738;2022-12-18T06:01:30;-3.70;61.40
48551;DHT22;34397;51.176;6.738;2022-12-18T06:04:03;-3.60;61.80
48551;DHT22;34397;51.176;6.738;2022-12-18T06:06:35;-3.70;61.80
48551;DHT22;34397;51.176;6.738;2022-12-18T06:09:07;-3.70;61.50
48551;DHT22;34397;51.176;6.738;2022-12-18T06:11:39;-3.70;61.60
48551;DHT22;34397;51.176;6.738;2022-12-18T06:14:11;-3.70;61.80
48551;DHT22;34397;51.176;6.738;2022-12-18T06:16:43;-3.70;61.90
48551;DHT22;34397;51.176;6.738;2022-12-18T06:19:17;-3.60;61.70
48551;DHT22;34397;51.176;6.738;2022-12-18T06:21:49;-3.60;61.70
48551;DHT22;34397;51.176;6.738;2022-12-18T06:24:21;-3.60;61.60
48551;DHT22;34397;51.176;6.738;2022-12-18T06:26:53;-3.60;61.50
48551;DHT22;34397;51.176;6.738;2022-12-18T06:29:25;-3.60;61.40
48551;DHT22;34397;51.176;6.738;2022-12-18T06:31:56;-3.60;61.20
48551;DHT22;34397;51.176;6.738;2022-12-18T06:34:30;-3.50;61.10
48551;DHT22;34397;51.176;6.738;2022-12-18T06:37:01;-3.60;61.70
48551;DHT22;34397;51.176;6.738;2022-12-18T06:39:33;-3.60;61.00
48551;DHT22;34397;51.176;6.738;2022-12-18T06:42:05;-3.60;61.00
48551;DHT22;34397;51.176;6.738;2022-12-18T06:44:37;-3.60;61.10
48551;DHT22;34397;51.176;6.738;2022-12-18T06:47:09;-3.60;60.90
48551;DHT22;34397;51.176;6.738;2022-12-18T06:49:42;-3.50;61.10
48551;DHT22;34397;51.176;6.738;2022-12-18T06:52:14;-3.50;60.90
48551;DHT22;34397;51.176;6.738;2022-12-18T06:54:46;-3.60;61.00
48551;DHT22;34397;51.176;6.738;2022-12-18T06:57:18;-3.50;61.10
48551;DHT22;34397;51.176;6.738;2022-12-18T06:59:50;-3.50;61.00
48551;DHT22;34397;51.176;6.738;2022-12-18T07:02:22;-3.50;61.00
48551;DHT22;34397;51.176;6.738;2022-12-18T07:04:55;-3.60;60.80
48551;DHT22;34397;51.176;6.738;2022-12-18T07:07:27;-3.60;60.90
48551;DHT22;34397;51.176;6.738;2022-12-18T07:09:59;-3.50;61.00
48551;DHT22;34397;51.176;6.738;2022-12-18T07:12:30;-3.60;60.80
48551;DHT22;34397;51.176;6.738;2022-12-18T07:15:03;-3.60;60.80
48551;DHT22;34397;51.176;6.738;2022-12-18T07:17:36;-3.60;60.80
48551;DHT22;34397;51.176;6.738;2022-12-18T07:20:10;-3.60;60.70
48551;DHT22;34397;51.176;6.738;2022-12-18T07:22:42;-3.60;60.90
48551;DHT22;34397;51.176;6.738;2022-12-18T07:25:14;-3.60;60.80
48551;DHT22;34397;51.176;6.738;2022-12-18T07:27:46;-3.60;60.90
48551;DHT22;34397;51.176;6.738;2022-12-18T07:30:18;-3.70;60.90
48551;DHT22;34397;51.176;6.738;2022-12-18T07:32:49;-3.70;61.00
48551;DHT22;34397;51.176;6.738;2022-12-18T07:35:22;-3.60;61.10
48551;DHT22;34397;51.176;6.738;2022-12-18T07:37:54;-3.60;61.10
48551;DHT22;34397;51.176;6.738;2022-12-18T07:40:26;-3.60;60.90
48551;DHT22;34397;51.176;6.738;2022-12-18T07:42:58;-3.60;60.90
48551;DHT22;34397;51.176;6.738;2022-12-18T07:45:30;-3.70;60.80
48551;DHT22;34397;51.176;6.738;2022-12-18T07:48:02;-3.70;60.70
48551;DHT22;34397;51.176;6.738;2022-12-18T07:50:36;-3.70;60.90
48551;DHT22;34397;51.176;6.738;2022-12-18T07:53:08;-3.70;60.90
48551;DHT22;34397;51.176;6.738;2022-12-18T07:55:40;-3.70;60.90
48551;DHT22;34397;51.176;6.738;2022-12-18T07:58:12;-3.60;60.90
48551;DHT22;34397;51.176;6.738;2022-12-18T08:00:44;-3.70;60.90
48551;DHT22;34397;51.176;6.738;2022-12-18T08:03:16;-3.60;60.90
48551;DHT22;34397;51.176;6.738;2022-12-18T08:05:49;-3.60;60.70
48551;DHT22;34397;51.176;6.738;2022-12-18T08:08:21;-3.60;60.70
48551;DHT22;34397;51.176;6.738;2022-12-18T08:10:52;-3.60;60.70
48551;DHT22;34397;51.176;6.738;2022-12-18T08:13:25;-3.50;60.60
48551;DHT22;34397;51.176;6.738;2022-12-18T08:15:58;-3.50;60.40
48551;DHT22;34397;51.176;6.738;2022-12-18T08:18:32;-3.50;60.40
48551;DHT22;34397;51.176;6.738;2022-12-18T08:21:10;-3.40;60.40
48551;DHT22;34397;51.176;6.738;2022-12-18T08:23:43;-3.40;60.20
48551;DHT22;34397;51.176;6.738;2022-12-18T08:26:15;-3.40;60.10
48551;DHT22;34397;51.176;6.738;2022-12-18T08:28:47;-3.40;59.70
48551;DHT22;34397;51.176;6.738;2022-12-18T08:31:19;-3.40;60.00
48551;DHT22;34397;51.176;6.738;2022-12-18T08:33:52;-3.30;59.80
48551;DHT22;34397;51.176;6.738;2022-12-18T08:36:26;-3.30;59.90
48551;DHT22;34397;51.176;6.738;2022-12-18T08:38:58;-3.30;59.70
48551;DHT22;34397;51.176;6.738;2022-12-18T08:41:30;-3.20;59.70
48551;DHT22;34397;51.176;6.738;2022-12-18T08:44:01;-3.20;59.50
48551;DHT22;34397;51.176;6.738;2022-12-18T08:46:51;-3.20;59.60
48551;DHT22;34397;51.176;6.738;2022-12-18T08:49:23;-3.20;59.50
48551;DHT22;34397;51.176;6.738;2022-12-18T08:51:56;-3.20;59.50
48551;DHT22;34397;51.176;6.738;2022-12-18T08:54:29;-3.20;59.40
48551;DHT22;34397;51.176;6.738;2022-12-18T08:57:00;-3.10;59.40
48551;DHT22;34397;51.176;6.738;2022-12-18T08:59:32;-3.10;59.30
48551;DHT22;34397;51.176;6.738;2022-12-18T09:02:04;-3.10;59.20
48551;DHT22;34397;51.176;6.738;2022-12-18T09:04:36;-3.00;59.20
48551;DHT22;34397;51.176;6.738;2022-12-18T09:07:11;-3.00;59.10
48551;DHT22;34397;51.176;6.738;2022-12-18T09:09:43;-2.90;59.00
48551;DHT22;34397;51.176;6.738;2022-12-18T09:12:15;-2.90;58.90
48551;DHT22;34397;51.176;6.738;2022-12-18T09:14:47;-2.90;58.70
48551;DHT22;34397;51.176;6.738;2022-12-18T09:17:18;-2.90;58.70
48551;DHT22;34397;51.176;6.738;2022-12-18T09:19:50;-2.90;58.60
48551;DHT22;34397;51.176;6.738;2022-12-18T09:22:24;-2.80;58.50
48551;DHT22;34397;51.176;6.738;2022-12-18T09:24:55;-2.80;58.50
48551;DHT22;34397;51.176;6.738;2022-12-18T09:27:27;-2.80;58.50
48551;DHT22;34397;51.176;6.738;2022-12-18T09:29:59;-2.80;58.40
48551;DHT22;34397;51.176;6.738;2022-12-18T09:32:31;-2.70;58.40
48551;DHT22;34397;51.176;6.738;2022-12-18T09:35:04;-2.70;58.10
48551;DHT22;34397;51.176;6.738;2022-12-18T09:37:37;-2.70;58.00
48551;DHT22;34397;51.176;6.738;2022-12-18T09:40:13;-2.70;58.10
48551;DHT22;34397;51.176;6.738;2022-12-18T09:42:50;-2.70;58.50
48551;DHT22;34397;51.176;6.738;2022-12-18T09:45:23;-2.60;57.80
48551;DHT22;34397;51.176;6.738;2022-12-18T09:47:55;-2.60;57.70
48551;DHT22;34397;51.176;6.738;2022-12-18T09:50:30;-2.50;57.60
48551;DHT22;34397;51.176;6.738;2022-12-18T09:53:09;-2.50;57.50
48551;DHT22;34397;51.176;6.738;2022-12-18T09:55:46;-2.40;57.50
48551;DHT22;34397;51.176;6.738;2022-12-18T09:58:26;-2.40;57.20
48551;DHT22;34397;51.176;6.738;2022-12-18T10:01:00;-2.30;57.10
48551;DHT22;34397;51.176;6.738;2022-12-18T10:03:32;-2.30;56.80
48551;DHT22;34397;51.176;6.738;2022-12-18T10:06:07;-2.20;56.70
48551;DHT22;34397;51.176;6.738;2022-12-18T10:08:49;-2.20;56.60
48551;DHT22;34397;51.176;6.738;2022-12-18T10:11:32;-2.20;56.60
48551;DHT22;34397;51.176;6.738;2022-12-18T10:14:15;-2.10;56.50
48551;DHT22;34397;51.176;6.738;2022-12-18T10:16:58;-2.10;56.40
48551;DHT22;34397;51.176;6.738;2022-12-18T10:19:43;-2.10;56.10
48551;DHT22;34397;51.176;6.738;2022-12-18T10:22:38;-2.00;56.20
48551;DHT22;34397;51.176;6.738;2022-12-18T10:25:21;-2.00;56.10
48551;DHT22;34397;51.176;6.738;2022-12-18T10:28:00;-2.00;56.20
48551;DHT22;34397;51.176;6.738;2022-12-18T10:30:39;-1.90;55.90
48551;DHT22;34397;51.176;6.738;2022-12-18T10:33:12;-1.90;55.70
48551;DHT22;34397;51.176;6.738;2022-12-18T10:35:46;-1.80;55.70
48551;DHT22;34397;51.176;6.738;2022-12-18T10:38:22;-1.80;55.40
48551;DHT22;34397;51.176;6.738;2022-12-18T10:40:58;-1.80;55.40
48551;DHT22;34397;51.176;6.738;2022-12-18T10:43:33;-1.70;55.50
48551;DHT22;34397;51.176;6.738;2022-12-18T10:46:17;-1.70;55.00
48551;DHT22;34397;51.176;6.738;2022-12-18T10:48:53;-1.60;55.20
48551;DHT22;34397;51.176;6.738;2022-12-18T10:51:28;-1.60;55.00
48551;DHT22;34397;51.176;6.738;2022-12-18T10:54:04;-1.60;55.00
48551;DHT22;34397;51.176;6.738;2022-12-18T10:56:38;-1.60;54.80
48551;DHT22;34397;51.176;6.738;2022-12-18T10:59:12;-1.50;54.70
48551;DHT22;34397;51.176;6.738;2022-12-18T11:01:47;-1.40;54.80
48551;DHT22;34397;51.176;6.738;2022-12-18T11:04:23;-1.40;54.70
48551;DHT22;34397;51.176;6.738;2022-12-18T11:06:58;-1.30;54.30
48551;DHT22;34397;51.176;6.738;2022-12-18T11:09:31;-1.30;54.30
48551;DHT22;34397;51.176;6.738;2022-12-18T11:12:15;-1.20;54.20
48551;DHT22;34397;51.176;6.738;2022-12-18T11:14:51;-1.20;54.20
48551;DHT22;34397;51.176;6.738;2022-12-18T11:17:28;-1.10;54.20
48551;DHT22;34397;51.176;6.738;2022-12-18T11:20:04;-1.10;53.90
48551;DHT22;34397;51.176;6.738;2022-12-18T11:22:39;-1.00;53.60
48551;DHT22;34397;51.176;6.738;2022-12-18T11:25:18;-0.90;53.50
48551;DHT22;34397;51.176;6.738;2022-12-18T11:27:55;-0.90;53.60
48551;DHT22;34397;51.176;6.738;2022-12-18T11:30:30;-0.80;53.60
48551;DHT22;34397;51.176;6.738;2022-12-18T11:33:04;-0.70;53.30
48551;DHT22;34397;51.176;6.738;2022-12-18T11:35:42;-0.70;52.90
48551;DHT22;34397;51.176;6.738;2022-12-18T11:38:20;-0.60;53.00
48551;DHT22;34397;51.176;6.738;2022-12-18T11:40:58;-0.60;53.00
48551;DHT22;34397;51.176;6.738;2022-12-18T11:43:37;-0.50;52.80
48551;DHT22;34397;51.176;6.738;2022-12-18T11:46:15;-0.50;52.40
48551;DHT22;34397;51.176;6.738;2022-12-18T11:48:56;-0.50;52.50
48551;DHT22;34397;51.176;6.738;2022-12-18T11:51:37;-0.60;52.30
48551;DHT22;34397;51.176;6.738;2022-12-18T11:54:14;-0.60;52.60
48551;DHT22;34397;51.176;6.738;2022-12-18T11:56:49;-0.60;52.50
48551;DHT22;34397;51.176;6.738;2022-12-18T11:59:30;-0.70;52.60
48551;DHT22;34397;51.176;6.738;2022-12-18T12:02:21;-0.80;52.70
48551;DHT22;34397;51.176;6.738;2022-12-18T12:05:18;-0.80;53.00
48551;DHT22;34397;51.176;6.738;2022-12-18T12:08:01;-0.90;53.20
48551;DHT22;34397;51.176;6.738;2022-12-18T12:10:48;-0.90;53.20
48551;DHT22;34397;51.176;6.738;2022-12-18T12:13:36;-0.90;53.40
48551;DHT22;34397;51.176;6.738;2022-12-18T12:16:19;-0.90;53.50
48551;DHT22;34397;51.176;6.738;2022-12-18T12:19:06;-1.00;53.60
48551;DHT22;34397;51.176;6.738;2022-12-18T12:21:52;-1.00;53.50
48551;DHT22;34397;51.176;6.738;2022-12-18T12:24:36;-1.00;53.70
48551;DHT22;34397;51.176;6.738;2022-12-18T12:27:19;-1.00;53.70
48551;DHT22;34397;51.176;6.738;2022-12-18T12:30:03;-1.00;53.70
48551;DHT22;34397;51.176;6.738;2022-12-18T12:33:01;-1.10;53.70
48551;DHT22;34397;51.176;6.738;2022-12-18T12:35:47;-1.00;53.70
48551;DHT22;34397;51.176;6.738;2022-12-18T12:38:26;-1.10;53.80
48551;DHT22;34397;51.176;6.738;2022-12-18T12:41:03;-1.10;53.70
48551;DHT22;34397;51.176;6.738;2022-12-18T12:43:41;-1.20;53.70
48551;DHT22;34397;51.176;6.738;2022-12-18T12:46:16;-1.20;54.10
48551;DHT22;34397;51.176;6.738;2022-12-18T12:48:52;-1.20;54.20
48551;DHT22;34397;51.176;6.738;2022-12-18T12:51:28;-1.20;54.30
48551;DHT22;34397;51.176;6.738;2022-12-18T12:54:05;-1.20;54.10
48551;DHT22;34397;51.176;6.738;2022-12-18T12:56:47;-1.20;54.20
48551;DHT22;34397;51.176;6.738;2022-12-18T12:59:26;-1.20;54.20
48551;DHT22;34397;51.176;6.738;2022-12-18T13:02:06;-1.10;54.20
48551;DHT22;34397;51.176;6.738;2022-12-18T13:04:49;-1.10;54.10
48551;DHT22;34397;51.176;6.738;2022-12-18T13:07:27;-1.10;54.10
48551;DHT22;34397;51.176;6.738;2022-12-18T13:10:38;-1.10;54.00
48551;DHT22;34397;51.176;6.738;2022-12-18T13:13:11;-1.10;53.90
48551;DHT22;34397;51.176;6.738;2022-12-18T13:15:45;-1.00;53.80
48551;DHT22;34397;51.176;6.738;2022-12-18T13:18:19;-1.00;53.80
48551;DHT22;34397;51.176;6.738;2022-12-18T13:21:12;-0.90;53.80
48551;DHT22;34397;51.176;6.738;2022-12-18T13:23:52;-0.90;53.50
48551;DHT22;34397;51.176;6.738;2022-12-18T13:26:32;-1.00;53.70
48551;DHT22;34397;51.176;6.738;2022-12-18T13:29:04;-1.00;53.70
48551;DHT22;34397;51.176;6.738;2022-12-18T13:38:23;-1.00;53.60
48551;DHT22;34397;51.176;6.738;2022-12-18T13:40:57;-0.90;53.70
48551;DHT22;34397;51.176;6.738;2022-12-18T13:43:43;-0.90;53.70
48551;DHT22;34397;51.176;6.738;2022-12-18T13:46:21;-1.00;53.80
48551;DHT22;34397;51.176;6.738;2022-12-18T13:49:00;-1.00;53.90
48551;DHT22;34397;51.176;6.738;2022-12-18T13:51:35;-1.00;54.00
48551;DHT22;34397;51.176;6.738;2022-12-18T13:54:17;-1.00;54.10
48551;DHT22;34397;51.176;6.738;2022-12-18T13:56:51;-1.00;54.00
48551;DHT22;34397;51.176;6.738;2022-12-18T13:59:25;-1.00;54.00
48551;DHT22;34397;51.176;6.738;2022-12-18T14:01:59;-1.00;54.10
48551;DHT22;34397;51.176;6.738;2022-12-18T14:04:33;-1.00;54.10
48551;DHT22;34397;51.176;6.738;2022-12-18T14:07:07;-1.00;54.10
48551;DHT22;34397;51.176;6.738;2022-12-18T14:09:47;-1.00;54.10
48551;DHT22;34397;51.176;6.738;2022-12-18T14:12:22;-1.00;54.00
48551;DHT22;34397;51.176;6.738;2022-12-18T14:15:23;-1.10;54.30
48551;DHT22;34397;51.176;6.738;2022-12-18T14:18:00;-1.10;54.00
48551;DHT22;34397;51.176;6.738;2022-12-18T14:20:34;-1.10;54.10
48551;DHT22;34397;51.176;6.738;2022-12-18T14:23:25;-1.10;54.30
48551;DHT22;34397;51.176;6.738;2022-12-18T14:26:01;-1.10;54.60
48551;DHT22;34397;51.176;6.738;2022-12-18T14:28:42;-1.20;54.50
48551;DHT22;34397;51.176;6.738;2022-12-18T14:31:18;-1.20;55.10
48551;DHT22;34397;51.176;6.738;2022-12-18T14:33:51;-1.30;54.90
48551;DHT22;34397;51.176;6.738;2022-12-18T14:36:25;-1.20;54.80
48551;DHT22;34397;51.176;6.738;2022-12-18T14:38:58;-1.30;54.70
48551;DHT22;34397;51.176;6.738;2022-12-18T14:41:31;-1.30;55.00
48551;DHT22;34397;51.176;6.738;2022-12-18T14:44:06;-1.30;55.30
48551;DHT22;34397;51.176;6.738;2022-12-18T14:46:41;-1.30;55.30
48551;DHT22;34397;51.176;6.738;2022-12-18T14:49:21;-1.30;55.30
48551;DHT22;34397;51.176;6.738;2022-12-18T14:51:56;-1.40;55.30
48551;DHT22;34397;51.176;6.738;2022-12-18T14:54:30;-1.30;55.60
48551;DHT22;34397;51.176;6.738;2022-12-18T14:57:19;-1.30;55.50
48551;DHT22;34397;51.176;6.738;2022-12-18T14:59:53;-1.30;55.70
48551;DHT22;34397;51.176;6.738;2022-12-18T15:02:26;-1.40;55.80
48551;DHT22;34397;51.176;6.738;2022-12-18T15:05:00;-1.40;55.90
48551;DHT22;34397;51.176;6.738;2022-12-18T15:07:41;-1.40;56.00
48551;DHT22;34397;51.176;6.738;2022-12-18T15:10:15;-1.50;56.00
48551;DHT22;34397;51.176;6.738;2022-12-18T15:13:05;-1.50;56.10
48551;DHT22;34397;51.176;6.738;2022-12-18T15:15:47;-1.50;55.90
48551;DHT22;34397;51.176;6.738;2022-12-18T15:18:21;-1.50;56.00
48551;DHT22;34397;51.176;6.738;2022-12-18T15:20:58;-1.50;56.00
48551;DHT22;34397;51.176;6.738;2022-12-18T15:23:35;-1.50;56.10
48551;DHT22;34397;51.176;6.738;2022-12-18T15:26:09;-1.50;56.10
48551;DHT22;34397;51.176;6.738;2022-12-18T15:28:46;-1.50;55.90
48551;DHT22;34397;51.176;6.738;2022-12-18T15:31:24;-1.50;56.00
48551;DHT22;34397;51.176;6.738;2022-12-18T15:34:08;-1.50;56.20
48551;DHT22;34397;51.176;6.738;2022-12-18T15:36:42;-1.50;56.00
48551;DHT22;34397;51.176;6.738;2022-12-18T15:39:15;-1.50;56.20
48551;DHT22;34397;51.176;6.738;2022-12-18T15:41:47;-1.50;56.30
48551;DHT22;34397;51.176;6.738;2022-12-18T15:44:37;-1.60;56.00
48551;DHT22;34397;51.176;6.738;2022-12-18T15:47:11;-1.60;56.20
48551;DHT22;34397;51.176;6.738;2022-12-18T15:49:43;-1.60;56.20
48551;DHT22;34397;51.176;6.738;2022-12-18T15:52:15;-1.60;56.00
48551;DHT22;34397;51.176;6.738;2022-12-18T15:54:56;-1.50;56.10
48551;DHT22;34397;51.176;6.738;2022-12-18T15:57:45;-1.60;56.20
48551;DHT22;34397;51.176;6.738;2022-12-18T16:00:19;-1.60;56.00
48551;DHT22;34397;51.176;6.738;2022-12-18T16:02:51;-1.60;56.20
48551;DHT22;34397;51.176;6.738;2022-12-18T16:05:23;-1.60;56.20
48551;DHT22;34397;51.176;6.738;2022-12-18T16:07:55;-1.60;56.30
48551;DHT22;34397;51.176;6.738;2022-12-18T16:10:27;-1.60;56.30
48551;DHT22;34397;51.176;6.738;2022-12-18T16:12:59;-1.60;56.20
48551;DHT22;34397;51.176;6.738;2022-12-18T16:15:32;-1.60;56.30
48551;DHT22;34397;51.176;6.738;2022-12-18T16:18:04;-1.60;56.30
48551;DHT22;34397;51.176;6.738;2022-12-18T16:20:36;-1.60;56.30
48551;DHT22;34397;51.176;6.738;2022-12-18T16:23:09;-1.60;56.30
48551;DHT22;34397;51.176;6.738;2022-12-18T16:25:41;-1.60;56.30
48551;DHT22;34397;51.176;6.738;2022-12-18T16:28:13;-1.60;56.30
48551;DHT22;34397;51.176;6.738;2022-12-18T16:30:47;-1.60;56.50